Time;durP1;ratioP1;P1;durP2;ratioP2;P2;SDS_P1;SDS_P2;PMS_P1;PMS_P2;Temp;Humidity;BMP_temperature;BMP_pressure;BME280_temperature;BME280_humidity;BME280_pressure;Samples;Min_cycle;Max_cycle;Signal;HPM_P1;HPM_P2
2022/09/01 00:01:20;;;;;;;1.73;1.63;;;;;;;27.60;33.25;101000.00;4218740;28;20044;-58
2022/09/01 00:03:24;;;;;;;1.70;1.55;;;;;;;27.61;33.06;100993.22;4215233;28;20188;-57
2022/09/01 00:05:31;;;;;;;1.73;1.45;;;;;;;27.60;33.48;101014.06;4227753;28;20043;-58
2022/09/01 00:07:34;;;;;;;1.52;1.42;;;;;;;27.54;33.44;100998.50;4232414;28;20097;-58
2022/09/01 00:09:37;;;;;;;1.60;1.50;;;;;;;27.55;33.13;101000.97;4232500;28;20036;-58
2022/09/01 00:11:42;;;;;;;1.73;1.63;;;;;;;27.38;33.34;100977.59;4221005;28;20044;-58
2022/09/01 00:13:43;;;;;;;1.67;1.52;;;;;;;27.59;33.34;101012.41;4215124;28;20044;-58
2022/09/01 00:15:45;;;;;;;2.25;1.85;;;;;;;27.58;33.28;101016.34;4228259;28;20040;-57
2022/09/01 00:17:46;;;;;;;2.20;1.60;;;;;;;27.36;33.28;100981.56;4227296;28;20101;-60
2022/09/01 00:19:48;;;;;;;2.55;1.70;;;;;;;27.47;33.17;100998.13;4231782;28;20031;-58
2022/09/01 00:21:49;;;;;;;2.42;1.80;;;;;;;27.55;33.42;101017.84;4224899;28;20089;-58
2022/09/01 00:23:54;;;;;;;1.27;1.17;;;;;;;27.55;33.28;101025.44;4214798;28;20086;-59
2022/09/01 00:25:55;;;;;;;1.88;1.67;;;;;;;27.56;33.19;101019.50;4214573;28;20040;-58
2022/09/01 00:27:59;;;;;;;1.88;1.38;;;;;;;27.54;33.30;101020.97;4214747;28;20036;-59
2022/09/01 00:30:00;;;;;;;4.13;1.40;;;;;;;27.52;33.49;101018.47;4220854;28;20057;-59
2022/09/01 00:32:01;;;;;;;51.10;4.07;;;;;;;27.55;34.03;101025.44;4231491;28;20032;-61
2022/09/01 00:34:04;;;;;;;45.40;4.05;;;;;;;27.51;33.78;101028.06;4224264;27;20044;-59
2022/09/01 00:36:06;;;;;;;7.45;1.83;;;;;;;27.40;33.90;101026.72;4227740;28;20433;-59
2022/09/01 00:38:10;;;;;;;44.90;4.43;;;;;;;27.21;34.29;101026.09;4231856;28;20085;-66
2022/09/01 00:40:13;;;;;;;8.77;1.67;;;;;;;27.28;34.07;101038.53;4215966;28;20101;-62
2022/09/01 00:42:15;;;;;;;16.80;2.47;;;;;;;27.22;34.07;101014.56;4217261;28;20077;-60
2022/09/01 00:44:22;;;;;;;32.03;2.88;;;;;;;27.34;35.08;101034.44;4215461;28;20073;-63
2022/09/01 00:46:36;;;;;;;19.83;2.33;;;;;;;27.47;34.77;101043.09;4215243;28;20388;-62
2022/09/01 00:48:38;;;;;;;16.70;2.30;;;;;;;27.53;35.35;101034.19;4231476;28;20100;-60
2022/09/01 00:50:40;;;;;;;15.07;2.90;;;;;;;27.58;35.09;101050.06;4219772;28;20048;-60
2022/09/01 00:52:46;;;;;;;13.02;2.58;;;;;;;27.59;34.11;101046.13;4214432;28;20055;-60
2022/09/01 00:54:57;;;;;;;6.72;1.73;;;;;;;27.57;35.34;101048.44;4226133;28;20073;-60
2022/09/01 00:56:59;;;;;;;10.35;2.33;;;;;;;27.64;34.66;101051.63;4214339;28;20040;-60
2022/09/01 00:59:01;;;;;;;10.52;2.10;;;;;;;27.61;34.55;101069.94;4214250;28;20036;-59
2022/09/01 01:01:03;;;;;;;9.18;2.35;;;;;;;27.67;34.32;101058.56;4213410;28;20040;-60
2022/09/01 01:03:04;;;;;;;6.22;1.77;;;;;;;27.72;34.97;101053.66;4213248;28;21194;-59
2022/09/01 01:05:07;;;;;;;6.47;2.08;;;;;;;27.83;35.08;101062.63;4214248;28;20036;-62
2022/09/01 01:07:10;;;;;;;12.93;2.00;;;;;;;27.92;34.67;101071.94;4214332;28;20089;-63
2022/09/01 01:09:12;;;;;;;13.82;2.00;;;;;;;27.90;34.56;101048.09;4223198;28;20120;-63
2022/09/01 01:11:18;;;;;;;9.50;1.98;;;;;;;27.99;34.72;101051.75;4218698;28;20044;-60
2022/09/01 01:13:20;;;;;;;12.73;1.90;;;;;;;28.07;34.13;101062.19;4216993;28;20069;-61
2022/09/01 01:15:22;;;;;;;6.20;2.45;;;;;;;28.02;34.30;101065.16;4231045;28;20466;-62
2022/09/01 01:17:28;;;;;;;5.07;1.75;;;;;;;28.00;34.26;101062.69;4231423;28;20079;-62
2022/09/01 01:24:33;;;;;;;10.52;1.95;;;;;;;27.87;34.17;101072.06;4225433;28;20394;-62
2022/09/01 01:26:34;;;;;;;14.43;2.22;;;;;;;27.91;34.49;101072.25;4219046;28;20040;-61
2022/09/01 01:28:39;;;;;;;15.77;2.50;;;;;;;27.93;34.17;101072.75;4213895;28;20102;-62
2022/09/01 01:30:44;;;;;;;12.90;2.38;;;;;;;27.88;34.25;101062.47;4214959;28;20040;-61
2022/09/01 01:32:46;;;;;;;5.95;1.85;;;;;;;27.88;33.76;101070.91;4230816;28;20084;-60
2022/09/01 01:34:48;;;;;;;15.05;2.40;;;;;;;27.86;33.77;101073.25;4228875;28;20544;-60
2022/09/01 01:36:49;;;;;;;6.03;1.65;;;;;;;27.82;33.52;101073.06;4231200;28;20097;-61
2022/09/01 01:38:52;;;;;;;6.03;1.80;;;;;;;27.83;33.68;101074.69;4230862;28;20088;-61
2022/09/01 01:40:55;;;;;;;3.15;1.80;;;;;;;27.85;33.56;101075.19;4229036;28;20108;-60
2022/09/01 01:43:00;;;;;;;6.15;1.65;;;;;;;27.61;34.01;101038.19;4228740;28;20043;-60
2022/09/01 01:45:05;;;;;;;5.13;1.50;;;;;;;27.82;33.97;101073.06;4229011;28;20047;-60
2022/09/01 01:47:11;;;;;;;4.68;1.80;;;;;;;27.68;33.90;101058.25;4230873;28;20036;-60
2022/09/01 01:49:19;;;;;;;5.88;1.67;;;;;;;27.81;34.24;101071.41;4229171;28;20039;-60
2022/09/01 01:51:27;;;;;;;5.07;1.40;;;;;;;27.66;34.11;101032.41;4213297;28;20044;-61
2022/09/01 01:53:28;;;;;;;3.88;1.55;;;;;;;27.52;33.65;101076.69;4218239;28;20104;-61
2022/09/01 01:55:30;;;;;;;6.15;1.98;;;;;;;27.19;33.90;101079.78;4226384;28;20048;-60
2022/09/01 01:57:31;;;;;;;4.22;1.45;;;;;;;27.04;34.03;101091.41;4220183;28;20074;-61
2022/09/01 01:59:33;;;;;;;3.95;1.40;;;;;;;26.96;34.05;101090.19;4224487;28;20048;-61
2022/09/01 02:01:35;;;;;;;4.25;1.73;;;;;;;26.61;34.37;101044.97;4232175;28;20027;-61
2022/09/01 02:03:39;;;;;;;5.45;1.58;;;;;;;26.79;34.23;101090.84;4229031;28;20048;-60
2022/09/01 02:05:41;;;;;;;3.70;1.50;;;;;;;26.69;34.33;101088.31;4212137;28;20040;-62
2022/09/01 02:07:42;;;;;;;5.38;1.60;;;;;;;26.64;34.10;101094.03;4220250;28;20145;-62
2022/09/01 02:09:46;;;;;;;4.45;1.60;;;;;;;26.62;34.53;101093.53;4219448;28;20039;-61
2022/09/01 02:11:55;;;;;;;3.58;1.75;;;;;;;26.54;34.49;101083.88;4223221;28;20381;-60
2022/09/01 02:13:56;;;;;;;3.28;1.50;;;;;;;26.61;34.16;101094.66;4233683;28;20036;-60
2022/09/01 02:16:02;;;;;;;2.28;1.52;;;;;;;26.57;34.08;101094.50;4219004;28;20043;-60
2022/09/01 02:18:04;;;;;;;4.20;1.55;;;;;;;26.54;34.31;101092.31;4216443;28;20048;-60
2022/09/01 02:20:06;;;;;;;4.32;1.50;;;;;;;26.55;34.51;101085.53;4222495;28;20078;-60
2022/09/01 02:22:13;;;;;;;2.45;1.30;;;;;;;26.44;34.64;101074.88;4216657;28;20040;-60
2022/09/01 02:24:14;;;;;;;1.85;1.45;;;;;;;26.46;34.18;101086.59;4216777;28;20048;-61
2022/09/01 02:26:20;;;;;;;5.05;1.92;;;;;;;26.48;34.29;101095.53;4232287;28;20096;-64
2022/09/01 02:28:26;;;;;;;3.45;1.60;;;;;;;26.48;34.43;101101.13;4225693;28;20051;-63
2022/09/01 02:30:31;;;;;;;1.98;1.48;;;;;;;26.44;34.50;101100.13;4221495;27;20043;-63
2022/09/01 02:32:32;;;;;;;3.47;1.40;;;;;;;26.46;34.42;101103.44;4221598;28;20101;-62
2022/09/01 02:34:33;;;;;;;3.67;1.65;;;;;;;26.46;34.17;101109.06;4231482;28;20036;-61
2022/09/01 02:36:41;;;;;;;2.97;1.42;;;;;;;26.22;34.49;101070.00;4221665;28;20093;-61
2022/09/01 02:38:44;;;;;;;1.40;1.30;;;;;;;26.33;34.38;101089.09;4229890;28;20464;-62
2022/09/01 02:40:47;;;;;;;1.65;1.45;;;;;;;26.39;34.47;101111.41;4221411;28;20048;-61
2022/09/01 02:42:51;;;;;;;2.95;1.42;;;;;;;26.24;34.66;101088.16;4218870;28;20368;-63
2022/09/01 02:44:54;;;;;;;2.50;1.75;;;;;;;26.33;34.21;101105.91;4226835;28;20036;-62
2022/09/01 02:46:58;;;;;;;3.75;1.30;;;;;;;26.36;34.58;101107.28;4217614;28;20082;-62
2022/09/01 02:49:01;;;;;;;1.90;1.40;;;;;;;26.31;34.30;101108.22;4216320;28;20097;-62
2022/09/01 02:51:13;;;;;;;3.90;1.80;;;;;;;26.34;34.38;101107.59;4215604;28;20032;-62
2022/09/01 02:53:15;;;;;;;1.85;1.30;;;;;;;26.28;34.18;101094.81;4223862;28;20487;-63
2022/09/01 02:55:19;;;;;;;2.50;1.50;;;;;;;26.36;34.06;101108.09;4226425;28;20076;-62
2022/09/01 02:57:23;;;;;;;4.88;1.50;;;;;;;26.38;34.08;101106.94;4227785;28;20035;-62
2022/09/01 02:59:27;;;;;;;3.75;1.40;;;;;;;26.29;34.21;101110.50;4228885;28;20543;-62
2022/09/01 03:01:32;;;;;;;2.78;1.10;;;;;;;26.29;34.26;101113.28;4229800;28;20051;-62
2022/09/01 03:03:34;;;;;;;2.70;1.58;;;;;;;26.28;34.53;101106.03;4221266;28;20036;-63
2022/09/01 03:05:37;;;;;;;2.45;1.30;;;;;;;26.27;34.18;101107.19;4226220;28;20036;-63
2022/09/01 03:07:42;;;;;;;3.63;1.77;;;;;;;26.25;34.32;101097.41;4218700;28;20479;-65
2022/09/01 03:09:43;;;;;;;1.70;1.33;;;;;;;26.27;34.01;101095.13;4232892;28;20112;-63
2022/09/01 03:11:53;;;;;;;3.28;1.33;;;;;;;26.16;34.29;101100.13;4225835;28;20346;-61
2022/09/01 03:13:54;;;;;;;4.13;1.42;;;;;;;26.26;34.49;101111.13;4215893;28;20101;-62
2022/09/01 03:15:56;;;;;;;1.65;1.30;;;;;;;26.28;34.41;101103.22;4215879;28;20036;-64
2022/09/01 03:17:58;;;;;;;2.03;1.40;;;;;;;26.29;34.23;101110.50;4222325;28;20449;-64
2022/09/01 03:19:59;;;;;;;2.55;1.63;;;;;;;26.31;34.11;101113.81;4232718;28;20051;-64
2022/09/01 03:22:00;;;;;;;1.65;1.40;;;;;;;26.27;33.93;101107.19;4232385;28;20101;-63
2022/09/01 03:24:02;;;;;;;1.50;1.40;;;;;;;26.26;33.92;101115.91;4232704;28;20088;-62
2022/09/01 03:26:04;;;;;;;1.45;1.20;;;;;;;26.27;34.00;101115.59;4231650;28;20036;-64
2022/09/01 03:28:05;;;;;;;1.98;1.20;;;;;;;26.29;34.10;101113.28;4232148;28;20077;-63
2022/09/01 03:30:10;;;;;;;2.47;1.60;;;;;;;26.22;34.00;101109.28;4229138;28;20088;-62
2022/09/01 03:32:20;;;;;;;;;;;;;;;26.22;33.96;101115.72;4224043;28;20039;-63
2022/09/01 03:34:22;;;;;;;48.80;4.13;;;;;;;26.30;34.03;101117.78;4232789;28;20260;-61
2022/09/01 03:36:25;;;;;;;64.05;6.80;;;;;;;26.36;34.48;101118.50;4232458;28;20035;-61
2022/09/01 03:38:27;;;;;;;7.50;1.50;;;;;;;26.50;34.25;101116.53;4232546;28;20039;-65
2022/09/01 03:40:32;;;;;;;4.22;1.58;;;;;;;26.72;34.68;101114.94;4232087;27;20043;-64
2022/09/01 03:42:42;;;;;;;16.63;2.22;;;;;;;26.94;35.10;101120.56;4222548;28;20040;-62
2022/09/01 03:44:44;;;;;;;8.65;1.80;;;;;;;27.03;34.48;101124.28;4216410;28;20365;-66
2022/09/01 03:46:46;;;;;;;5.07;2.08;;;;;;;27.07;33.64;101118.84;4215174;28;20036;-64
2022/09/01 03:49:04;;;;;;;3.13;1.20;;;;;;;26.86;33.85;101116.53;4220881;28;20031;-61
2022/09/01 03:51:06;;;;;;;5.45;1.80;;;;;;;26.73;34.17;101114.59;4218858;28;20044;-63
2022/09/01 03:53:07;;;;;;;6.85;1.50;;;;;;;26.89;33.90;101117.03;4215630;28;20488;-63
2022/09/01 03:55:08;;;;;;;16.98;2.08;;;;;;;26.92;33.82;101122.03;4215586;28;20036;-61
2022/09/01 03:57:10;;;;;;;37.33;3.42;;;;;;;26.99;33.25;101128.03;4215673;28;20101;-65
2022/09/01 03:59:15;;;;;;;14.15;2.45;;;;;;;26.93;34.55;101115.25;4215864;28;20364;-64
2022/09/01 04:01:18;;;;;;;16.25;1.65;;;;;;;27.00;34.44;101121.28;4225609;28;20047;-64
2022/09/01 04:03:21;;;;;;;19.17;2.25;;;;;;;27.00;33.79;101124.09;4231766;28;20043;-64
2022/09/01 04:05:27;;;;;;;16.27;2.50;;;;;;;26.93;33.85;101126.50;4216270;28;20108;-64
2022/09/01 04:07:29;;;;;;;23.48;2.70;;;;;;;26.85;34.21;101128.91;4214998;28;20121;-64
2022/09/01 04:09:34;;;;;;;8.88;1.95;;;;;;;26.79;33.90;101118.94;4228059;28;20081;-65
2022/09/01 04:11:37;;;;;;;13.88;2.28;;;;;;;26.74;33.94;101127.47;4222066;28;20475;-64
2022/09/01 04:13:40;;;;;;;8.20;2.25;;;;;;;26.75;33.61;101131.94;4215407;28;20048;-64
2022/09/01 04:15:42;;;;;;;15.25;1.95;;;;;;;26.77;33.84;101128.84;4215327;28;20090;-64
2022/09/01 04:20:09;;;;;;;8.98;1.85;;;;;;;26.88;35.12;101129.41;4214434;28;20097;-64
2022/09/01 04:22:13;;;;;;;8.60;1.90;;;;;;;26.88;34.73;101130.25;4225158;28;20036;-64
2022/09/01 04:24:14;;;;;;;13.97;2.20;;;;;;;26.85;34.19;101123.31;4214375;28;20085;-64
2022/09/01 04:26:19;;;;;;;5.78;1.75;;;;;;;26.77;33.97;101121.25;4217311;28;20524;-64
2022/09/01 04:28:24;;;;;;;16.42;1.88;;;;;;;26.61;34.03;101117.94;4231914;28;20551;-64
2022/09/01 04:30:32;;;;;;;3.85;1.98;;;;;;;26.69;34.24;101135.19;4231490;28;20352;-64
2022/09/01 04:32:33;;;;;;;14.70;2.22;;;;;;;26.63;34.26;101134.50;4229633;28;20105;-64
2022/09/01 04:34:37;;;;;;;8.70;1.75;;;;;;;26.66;34.01;101138.63;4214341;28;20040;-64
2022/09/01 04:36:43;;;;;;;7.05;2.08;;;;;;;26.65;33.96;101132.19;4214526;28;20117;-64
2022/09/01 04:38:56;;;;;;;11.20;2.00;;;;;;;26.55;35.00;101112.78;4219600;28;20031;-63
2022/09/01 04:41:00;;;;;;;9.35;1.70;;;;;;;26.80;35.17;101137.47;4231128;28;20044;-64
2022/09/01 04:43:01;;;;;;;14.63;2.05;;;;;;;26.83;34.86;101136.81;4231804;28;20023;-63
2022/09/01 04:45:09;;;;;;;8.93;2.28;;;;;;;26.79;34.29;101129.34;4231523;28;20035;-64
2022/09/01 04:47:15;;;;;;;4.43;1.80;;;;;;;26.80;34.24;101133.81;4231780;28;20445;-64
2022/09/01 04:49:27;;;;;;;7.80;1.77;;;;;;;26.73;34.36;101139.88;4229925;28;20077;-64
2022/09/01 04:51:31;;;;;;;6.95;2.22;;;;;;;26.60;34.39;101123.88;4213622;28;20453;-64
2022/09/01 04:53:32;;;;;;;11.82;2.10;;;;;;;26.67;34.42;101138.34;4215274;28;20548;-64
2022/09/01 04:55:43;;;;;;;3.75;1.60;;;;;;;26.63;34.20;101147.69;4221997;28;20471;-63
2022/09/01 04:57:48;;;;;;;3.60;1.50;;;;;;;26.62;34.50;101152.47;4229197;28;20039;-64
2022/09/01 04:59:49;;;;;;;11.25;1.90;;;;;;;26.68;35.02;101150.38;4230977;28;20053;-63
2022/09/01 05:01:54;;;;;;;6.18;1.73;;;;;;;26.76;35.26;101153.28;4219389;28;20481;-63
2022/09/01 05:03:58;;;;;;;6.90;1.73;;;;;;;26.77;34.60;101154.94;4215647;28;20421;-64
2022/09/01 05:06:01;;;;;;;6.13;2.33;;;;;;;26.74;34.33;101155.56;4213632;28;20100;-64
2022/09/01 05:08:02;;;;;;;4.50;1.80;;;;;;;26.70;34.61;101154.53;4213440;28;20051;-64
2022/09/01 05:10:04;;;;;;;3.42;1.50;;;;;;;26.69;34.35;101155.69;4214335;28;20036;-64
2022/09/01 05:12:12;;;;;;;4.18;1.58;;;;;;;26.64;34.38;101154.97;4213976;28;20441;-63
2022/09/01 05:14:17;;;;;;;3.08;1.73;;;;;;;26.61;34.42;101153.59;4224400;28;20039;-63
2022/09/01 05:16:20;;;;;;;7.85;2.13;;;;;;;26.41;34.32;101125.97;4225065;28;20086;-64
2022/09/01 05:18:24;;;;;;;3.88;1.58;;;;;;;26.55;34.42;101152.06;4213882;28;20384;-64
2022/09/01 05:20:28;;;;;;;5.30;1.80;;;;;;;26.59;34.33;101153.09;4213756;28;20044;-63
2022/09/01 05:22:30;;;;;;;6.35;1.60;;;;;;;26.69;35.40;101154.84;4213664;28;20757;-64
2022/09/01 05:24:33;;;;;;;4.63;1.40;;;;;;;26.74;34.68;101149.13;4213340;28;20044;-64
2022/09/01 05:26:39;;;;;;;2.45;1.20;;;;;;;26.75;34.14;101150.78;4213499;28;20128;-64
2022/09/01 05:28:40;;;;;;;4.50;1.42;;;;;;;26.67;34.46;101160.78;4214300;28;20044;-64
2022/09/01 05:30:44;;;;;;;3.67;1.60;;;;;;;26.65;34.42;101157.44;4213652;28;20036;-64
2022/09/01 05:32:47;;;;;;;3.13;1.47;;;;;;;26.65;34.04;101157.44;4213348;28;20036;-63
2022/09/01 05:34:52;;;;;;;1.55;1.20;;;;;;;26.63;34.18;101158.94;4212985;28;20109;-64
2022/09/01 05:36:58;;;;;;;1.92;1.42;;;;;;;26.57;34.39;101156.22;4213343;28;20515;-64
2022/09/01 05:39:00;;;;;;;3.17;1.25;;;;;;;26.58;34.77;101157.06;4213783;28;20533;-64
2022/09/01 05:41:08;;;;;;;2.17;1.25;;;;;;;26.46;35.65;101115.50;4212942;28;20044;-63
2022/09/01 05:43:12;;;;;;;2.78;1.45;;;;;;;26.68;34.62;101154.03;4213523;28;20036;-64
2022/09/01 05:45:14;;;;;;;2.45;1.45;;;;;;;26.66;34.26;101164.72;4213895;28;20044;-64
2022/09/01 05:47:15;;;;;;;2.40;1.52;;;;;;;26.63;34.72;101164.53;4213428;28;20048;-64
2022/09/01 05:49:17;;;;;;;3.10;1.52;;;;;;;26.53;34.16;101148.75;4213821;28;20044;-64
2022/09/01 05:51:22;;;;;;;1.77;1.42;;;;;;;26.54;34.55;101156.03;4212918;28;20442;-64
2022/09/01 05:53:24;;;;;;;1.63;1.35;;;;;;;26.53;34.01;101160.81;4213248;28;20097;-64
2022/09/01 05:55:26;;;;;;;1.90;1.38;;;;;;;26.53;34.40;101159.97;4213667;28;20032;-63
2022/09/01 05:57:27;;;;;;;4.75;1.17;;;;;;;26.47;34.05;101169.63;4213332;28;20094;-64
2022/09/01 05:59:32;;;;;;;2.75;1.35;;;;;;;26.47;34.26;101161.22;4213630;28;20048;-64
2022/09/01 06:01:39;;;;;;;2.40;1.65;;;;;;;26.43;34.33;101165.75;4214115;28;20410;-64
2022/09/01 06:03:43;;;;;;;1.95;1.30;;;;;;;26.45;34.45;101167.16;4215133;28;20113;-64
2022/09/01 06:05:51;;;;;;;1.58;1.35;;;;;;;26.48;35.37;101163.72;4230391;28;20100;-64
2022/09/01 06:07:56;;;;;;;3.63;1.40;;;;;;;26.57;34.77;101156.22;4216752;28;20479;-64
2022/09/01 06:09:58;;;;;;;;;;;;;;;26.56;34.61;101162.97;4214080;28;20040;-64
2022/09/01 06:12:01;;;;;;;3.58;1.70;;;;;;;26.58;34.19;101162.69;4212893;28;19973;-64
2022/09/01 06:14:03;;;;;;;2.95;1.42;;;;;;;26.26;34.14;101108.34;4222509;28;20047;-63
2022/09/01 06:16:04;;;;;;;1.95;1.52;;;;;;;26.39;34.20;101147.88;4226236;28;20040;-64
2022/09/01 06:18:11;;;;;;;2.33;1.30;;;;;;;26.46;34.16;101162.38;4213397;28;20441;-64
2022/09/01 06:20:12;;;;;;;1.98;1.20;;;;;;;26.47;33.99;101161.22;4213720;28;20541;-64
2022/09/01 06:22:20;;;;;;;1.73;1.45;;;;;;;26.49;35.08;101164.56;4213345;28;20356;-64
2022/09/01 06:24:27;;;;;;;2.05;1.40;;;;;;;26.58;35.32;101157.06;4213629;28;20040;-64
2022/09/01 06:26:32;;;;;;;1.83;1.20;;;;;;;26.57;34.33;101163.78;4213061;28;20097;-64
2022/09/01 06:28:33;;;;;;;5.18;1.90;;;;;;;26.34;34.39;101130.03;4213140;28;20040;-64
2022/09/01 06:30:38;;;;;;;2.70;1.77;;;;;;;26.52;34.53;101152.69;4212782;28;20433;-64
2022/09/01 06:32:42;;;;;;;;;;;;;;;26.51;34.62;101156.66;4213725;28;20044;-63
2022/09/01 06:34:44;;;;;;;2.47;1.40;;;;;;;26.55;34.33;101166.09;4213067;28;19912;-64
2022/09/01 06:36:50;;;;;;;3.45;1.48;;;;;;;26.56;34.40;101164.94;4213556;28;20044;-64
2022/09/01 06:38:53;;;;;;;1.45;1.20;;;;;;;26.59;34.43;101164.34;4213396;28;20036;-64
2022/09/01 06:41:03;;;;;;;1.45;1.35;;;;;;;26.51;34.62;101157.47;4213156;28;20028;-65
2022/09/01 06:43:06;;;;;;;1.70;1.30;;;;;;;26.56;34.27;101159.34;4213261;28;20526;-64
2022/09/01 06:45:09;;;;;;;1.60;1.50;;;;;;;26.52;34.32;101167.53;4212503;28;20094;-64
2022/09/01 06:47:10;;;;;;;1.50;1.30;;;;;;;26.57;34.61;101169.41;4226551;28;20156;-64
2022/09/01 06:49:11;;;;;;;2.75;1.30;;;;;;;26.56;34.83;101170.56;4233207;28;20069;-64
2022/09/01 06:51:19;;;;;;;3.65;1.20;;;;;;;26.54;34.97;101167.25;4229307;28;20044;-64
2022/09/01 06:53:20;;;;;;;2.05;1.17;;;;;;;26.54;34.62;101172.88;4221383;28;20438;-63
2022/09/01 06:55:21;;;;;;;2.17;1.25;;;;;;;26.50;34.66;101166.22;4233410;28;20096;-64
2022/09/01 06:57:26;;;;;;;1.67;1.20;;;;;;;26.48;34.48;101168.50;4220210;28;20048;-63
2022/09/01 06:59:30;;;;;;;2.35;1.20;;;;;;;26.45;34.40;101169.97;4216306;28;20043;-64
2022/09/01 07:01:36;;;;;;;1.77;1.30;;;;;;;26.44;34.29;101175.91;4214833;28;20089;-63
2022/09/01 07:03:38;;;;;;;2.45;1.40;;;;;;;26.45;34.41;101185.97;4215921;28;20105;-64
2022/09/01 07:05:45;;;;;;;1.65;1.50;;;;;;;26.46;35.29;101180.03;4216179;28;20040;-64
2022/09/01 07:07:54;;;;;;;1.40;1.30;;;;;;;26.52;35.76;101172.31;4215846;28;20040;-64
2022/09/01 07:09:55;;;;;;;1.30;1.20;;;;;;;26.54;34.94;101175.66;4214565;28;20048;-64
2022/09/01 07:11:57;;;;;;;1.48;1.27;;;;;;;26.49;34.54;101181.41;4215072;28;20043;-63
2022/09/01 07:14:04;;;;;;;3.35;1.10;;;;;;;26.49;34.37;101185.03;4224334;28;20040;-64
2022/09/01 07:16:06;;;;;;;1.35;1.10;;;;;;;26.45;34.35;101188.78;4232545;28;20096;-64
2022/09/01 07:18:09;;;;;;;1.77;1.30;;;;;;;26.39;34.20;101181.56;4215590;28;20044;-64
2022/09/01 07:20:10;;;;;;;1.80;1.45;;;;;;;26.39;34.35;101188.03;4216014;28;20437;-64
2022/09/01 07:22:14;;;;;;;3.00;1.20;;;;;;;26.41;34.88;101185.72;4214884;28;20446;-64
2022/09/01 07:24:25;;;;;;;6.13;1.48;;;;;;;26.43;35.79;101179.78;4215713;28;20044;-64
2022/09/01 07:26:27;;;;;;;1.98;1.23;;;;;;;26.53;35.06;101188.03;4216011;28;20409;-64
2022/09/01 07:28:31;;;;;;;1.40;1.30;;;;;;;26.49;34.66;101187.84;4215678;28;20074;-64
2022/09/01 07:30:35;;;;;;;1.45;1.20;;;;;;;26.39;34.62;101175.94;4215388;28;20040;-64
2022/09/01 07:32:38;;;;;;;1.95;1.38;;;;;;;26.42;34.83;101187.38;4215279;28;20101;-63
2022/09/01 07:34:39;;;;;;;1.65;1.38;;;;;;;26.24;34.78;101151.84;4215138;28;20039;-64
2022/09/01 07:36:42;;;;;;;1.60;1.33;;;;;;;26.43;34.70;101185.41;4214592;28;20044;-64
2022/09/01 07:38:44;;;;;;;1.55;1.20;;;;;;;26.43;34.98;101182.59;4215776;28;20101;-64
2022/09/01 07:40:46;;;;;;;1.98;1.20;;;;;;;26.43;34.66;101189.06;4215214;28;20044;-64
2022/09/01 07:42:53;;;;;;;1.80;1.40;;;;;;;26.41;34.61;101185.72;4216186;28;20380;-67
2022/09/01 07:45:01;;;;;;;2.05;1.30;;;;;;;26.39;35.08;101187.16;4215363;28;20040;-64
2022/09/01 07:47:08;;;;;;;1.50;1.27;;;;;;;26.30;34.63;101176.69;4214756;28;20121;-64
2022/09/01 07:49:10;;;;;;;1.55;1.20;;;;;;;26.31;34.93;101181.16;4215416;28;20044;-64
2022/09/01 07:51:17;;;;;;;1.10;1.00;;;;;;;26.33;34.88;101184.47;4214516;28;20193;-64
2022/09/01 07:53:26;;;;;;;1.38;1.27;;;;;;;26.39;34.77;101185.22;4215321;28;20043;-64
2022/09/01 07:55:28;;;;;;;1.48;1.38;;;;;;;26.42;35.12;101195.78;4215511;28;20036;-64
2022/09/01 07:57:30;;;;;;;1.45;1.20;;;;;;;26.43;34.97;101199.44;4216199;28;20048;-64
2022/09/01 07:59:34;;;;;;;1.65;1.33;;;;;;;26.28;35.02;101180.94;4214926;28;20044;-64
2022/09/01 08:01:36;;;;;;;2.20;1.67;;;;;;;26.44;34.70;101203.97;4215558;28;20036;-64
2022/09/01 08:03:40;;;;;;;2.15;1.40;;;;;;;26.44;34.80;101203.97;4215466;28;20109;-64
2022/09/01 08:05:46;;;;;;;1.38;1.27;;;;;;;26.29;34.91;101183.44;4214591;28;20113;-64
2022/09/01 08:07:48;;;;;;;1.58;1.38;;;;;;;26.44;35.22;101204.78;4215336;28;20089;-64
2022/09/01 08:09:50;;;;;;;1.10;1.00;;;;;;;26.44;34.71;101210.41;4215216;28;20090;-63
2022/09/01 08:11:51;;;;;;;1.33;1.23;;;;;;;26.41;35.17;101196.13;4214141;28;20093;-63
2022/09/01 08:13:53;;;;;;;1.40;1.30;;;;;;;26.40;35.01;101212.13;4214765;28;20040;-63
2022/09/01 08:15:55;;;;;;;2.15;1.63;;;;;;;26.39;35.29;101209.63;4215866;28;20040;-63
2022/09/01 08:17:56;;;;;;;2.65;1.30;;;;;;;26.36;35.00;101202.66;4213701;28;20040;-63
2022/09/01 08:19:57;;;;;;;1.45;1.30;;;;;;;26.38;35.02;101202.34;4214815;28;20048;-63
2022/09/01 08:22:00;;;;;;;3.58;1.27;;;;;;;26.38;34.59;101207.97;4217264;28;20077;-63
2022/09/01 08:24:04;;;;;;;1.35;1.23;;;;;;;26.32;35.02;101198.81;4231548;28;20093;-63
2022/09/01 08:26:13;;;;;;;1.23;1.13;;;;;;;26.39;36.10;101215.22;4230933;28;20039;-63
2022/09/01 08:28:15;;;;;;;1.75;1.40;;;;;;;26.43;35.67;101205.03;4216563;28;20036;-63
2022/09/01 08:30:16;;;;;;;2.40;1.60;;;;;;;26.27;35.18;101180.13;4215117;28;20085;-64
2022/09/01 08:32:23;;;;;;;1.15;1.10;;;;;;;26.26;35.12;101200.06;4213035;28;20451;-63
2022/09/01 08:34:25;;;;;;;2.13;1.33;;;;;;;26.39;35.27;101226.44;4214406;28;20036;-63
2022/09/01 08:36:26;;;;;;;1.52;1.42;;;;;;;26.31;35.35;101230.84;4214743;28;20101;-63
2022/09/01 08:38:28;;;;;;;1.50;1.40;;;;;;;26.33;35.30;101228.53;4215095;28;20043;-64
2022/09/01 08:40:29;;;;;;;1.63;1.17;;;;;;;26.34;34.87;101230.19;4214455;28;20093;-64
2022/09/01 08:43:07;;;;;;;1.48;1.38;;;;;;;26.30;35.22;101229.19;4214260;28;20066;-63
2022/09/01 08:45:20;;;;;;;1.98;1.77;;;;;;;26.32;34.97;101230.50;4215214;28;20040;-63
2022/09/01 08:47:22;;;;;;;1.45;1.27;;;;;;;26.33;35.01;101232.16;4213871;28;20028;-64
2022/09/01 08:49:24;;;;;;;1.30;1.20;;;;;;;26.33;35.29;101229.34;4214676;28;20085;-63
2022/09/01 08:52:10;;;;;;;1.40;1.30;;;;;;;26.31;35.18;101231.66;4214763;28;20040;-64
2022/09/01 08:54:26;;;;;;;1.85;1.20;;;;;;;26.32;35.08;101230.50;4213728;28;20113;-63
2022/09/01 08:56:27;;;;;;;1.33;1.23;;;;;;;26.32;34.90;101230.50;4214868;28;20101;-64
2022/09/01 08:58:30;;;;;;;1.52;1.33;;;;;;;26.32;35.23;101243.72;4213535;28;20579;-64
2022/09/01 09:01:00;;;;;;;1.50;1.40;;;;;;;26.29;35.08;101245.16;4214096;28;20078;-63
2022/09/01 09:03:41;;;;;;;1.73;1.50;;;;;;;26.30;34.90;101234.78;4207944;28;20048;-64
2022/09/01 09:05:58;;;;;;;2.05;1.35;;;;;;;26.07;34.91;101202.94;4214170;28;20056;-63
2022/09/01 09:08:25;;;;;;;1.40;1.30;;;;;;;26.23;35.12;101229.56;4217617;28;20044;-64
2022/09/01 09:10:36;;;;;;;1.67;1.40;;;;;;;26.08;34.61;101215.84;4216895;28;20044;-63
2022/09/01 09:13:08;;;;;;;1.30;1.20;;;;;;;26.19;35.10;101228.53;4213579;28;20421;-63
2022/09/01 09:15:46;;;;;;;1.48;1.38;;;;;;;26.29;36.22;101225.50;4213893;28;20109;-64
2022/09/01 09:17:58;;;;;;;2.65;1.60;;;;;;;26.30;35.32;101224.38;4213420;28;20105;-64
2022/09/01 09:20:01;;;;;;;2.13;1.50;;;;;;;26.25;34.93;101230.09;4214185;28;20036;-63
2022/09/01 09:22:13;;;;;;;1.33;1.23;;;;;;;26.20;34.79;101230.19;4213438;28;20454;-62
2022/09/01 09:24:54;;;;;;;1.35;1.25;;;;;;;26.20;35.92;101230.19;4213734;28;20035;-63
2022/09/01 09:27:01;;;;;;;2.33;1.30;;;;;;;26.24;36.20;101221.97;4229332;28;20044;-64
2022/09/01 09:29:02;;;;;;;1.88;1.42;;;;;;;26.32;35.51;101241.72;4214886;28;20101;-63
2022/09/01 09:31:26;;;;;;;1.40;1.30;;;;;;;26.24;35.28;101234.03;4213121;28;20036;-64
2022/09/01 09:33:38;;;;;;;4.10;1.67;;;;;;;26.25;35.11;101232.06;4213316;28;20575;-64
2022/09/01 09:35:44;;;;;;;1.60;1.45;;;;;;;26.13;35.17;101218.56;4213609;28;20044;-63
2022/09/01 09:37:48;;;;;;;1.40;1.30;;;;;;;26.25;35.22;101248.88;4213041;28;20043;-63
2022/09/01 09:40:10;;;;;;;1.40;1.27;;;;;;;26.24;35.46;101248.06;4213917;28;20090;-64
2022/09/01 09:42:13;;;;;;;1.30;1.20;;;;;;;26.27;35.45;101244.66;4212927;28;20505;-64
2022/09/01 09:44:31;;;;;;;1.33;1.17;;;;;;;26.28;35.37;101242.66;4213079;28;20129;-63
2022/09/01 09:46:39;;;;;;;1.48;1.38;;;;;;;26.31;35.28;101242.88;4213728;28;20040;-64
2022/09/01 09:48:40;;;;;;;2.17;1.40;;;;;;;26.30;35.23;101241.22;4213178;28;20117;-63